sensor_id;sensor_type;location;lat;lon;timestamp;temperature;humidity
13223;DHT22;6676;45.192;5.722;2022-12-18T05:41:58;1.10;99.90
13223;DHT22;6676;45.192;5.722;2022-12-18T06:01:27;1.20;99.90
13223;DHT22;6676;45.192;5.722;2022-12-18T06:04:20;1.20;99.90
13223;DHT22;6676;45.192;5.722;2022-12-18T06:26:13;1.00;99.90
13223;DHT22;6676;45.192;5.722;2022-12-18T06:29:01;1.00;99.90
13223;DHT22;6676;45.192;5.722;2022-12-18T06:31:54;0.90;99.90
13223;DHT22;6676;45.192;5.722;2022-12-18T06:37:33;0.90;99.90
13223;DHT22;6676;45.192;5.722;2022-12-18T06:40:24;0.90;99.90
13223;DHT22;6676;45.192;5.722;2022-12-18T06:43:16;0.90;99.90
13223;DHT22;6676;45.192;5.722;2022-12-18T06:46:08;0.90;99.90
13223;DHT22;6676;45.192;5.722;2022-12-18T06:49:01;0.90;99.90
13223;DHT22;6676;45.192;5.722;2022-12-18T06:51:53;0.90;99.90
13223;DHT22;6676;45.192;5.722;2022-12-18T06:54:45;1.00;99.90
13223;DHT22;6676;45.192;5.722;2022-12-18T06:57:38;0.90;99.90
13223;DHT22;6676;45.192;5.722;2022-12-18T07:00:29;0.90;99.90
13223;DHT22;6676;45.192;5.722;2022-12-18T07:03:21;0.90;99.90
13223;DHT22;6676;45.192;5.722;2022-12-18T07:06:17;1.00;99.90
13223;DHT22;6676;45.192;5.722;2022-12-18T07:09:09;0.90;99.90
13223;DHT22;6676;45.192;5.722;2022-12-18T07:12:00;1.00;99.90
13223;DHT22;6676;45.192;5.722;2022-12-18T07:17:32;1.00;99.90
13223;DHT22;6676;45.192;5.722;2022-12-18T07:20:24;1.00;99.90
13223;DHT22;6676;45.192;5.722;2022-12-18T07:23:15;1.00;99.90
13223;DHT22;6676;45.192;5.722;2022-12-18T07:28:54;0.90;99.90
13223;DHT22;6676;45.192;5.722;2022-12-18T07:31:44;0.90;99.90
13223;DHT22;6676;45.192;5.722;2022-12-18T07:40:26;0.90;99.90
13223;DHT22;6676;45.192;5.722;2022-12-18T08:00:37;1.00;99.90
13223;DHT22;6676;45.192;5.722;2022-12-18T08:17:11;1.00;99.90
13223;DHT22;6676;45.192;5.722;2022-12-18T08:20:03;1.10;99.90
13223;DHT22;6676;45.192;5.722;2022-12-18T08:22:56;1.10;99.90
13223;DHT22;6676;45.192;5.722;2022-12-18T08:25:48;1.20;99.90
13223;DHT22;6676;45.192;5.722;2022-12-18T08:31:31;1.20;99.90
13223;DHT22;6676;45.192;5.722;2022-12-18T08:34:23;1.30;99.90
13223;DHT22;6676;45.192;5.722;2022-12-18T08:40:01;1.40;99.90
13223;DHT22;6676;45.192;5.722;2022-12-18T08:42:53;1.50;99.90
13223;DHT22;6676;45.192;5.722;2022-12-18T08:46:03;1.60;99.90
13223;DHT22;6676;45.192;5.722;2022-12-18T08:48:55;1.60;99.90
13223;DHT22;6676;45.192;5.722;2022-12-18T08:51:47;1.60;99.90
13223;DHT22;6676;45.192;5.722;2022-12-18T08:54:38;1.70;99.90
13223;DHT22;6676;45.192;5.722;2022-12-18T09:00:22;1.80;99.90
13223;DHT22;6676;45.192;5.722;2022-12-18T09:03:15;1.80;99.90
13223;DHT22;6676;45.192;5.722;2022-12-18T09:06:08;1.90;99.90
13223;DHT22;6676;45.192;5.722;2022-12-18T09:09:04;1.90;99.90
13223;DHT22;6676;45.192;5.722;2022-12-18T09:12:02;2.00;99.90
13223;DHT22;6676;45.192;5.722;2022-12-18T09:14:54;2.00;99.90
13223;DHT22;6676;45.192;5.722;2022-12-18T09:17:46;2.00;99.90
13223;DHT22;6676;45.192;5.722;2022-12-18T09:20:41;2.10;99.90
13223;DHT22;6676;45.192;5.722;2022-12-18T09:26:18;2.20;99.90
13223;DHT22;6676;45.192;5.722;2022-12-18T09:29:11;2.20;99.90
13223;DHT22;6676;45.192;5.722;2022-12-18T09:32:04;2.20;99.90
13223;DHT22;6676;45.192;5.722;2022-12-18T09:34:56;2.20;99.90
13223;DHT22;6676;45.192;5.722;2022-12-18T09:37:50;2.30;99.90
13223;DHT22;6676;45.192;5.722;2022-12-18T09:40:45;2.40;99.90
13223;DHT22;6676;45.192;5.722;2022-12-18T09:43:41;2.30;99.90
13223;DHT22;6676;45.192;5.722;2022-12-18T09:46:36;2.40;99.90
13223;DHT22;6676;45.192;5.722;2022-12-18T09:52:21;2.60;99.90
13223;DHT22;6676;45.192;5.722;2022-12-18T09:58:02;2.70;99.90
13223;DHT22;6676;45.192;5.722;2022-12-18T10:00:57;2.80;99.90
13223;DHT22;6676;45.192;5.722;2022-12-18T10:03:49;2.80;99.90
13223;DHT22;6676;45.192;5.722;2022-12-18T10:09:32;3.00;99.90
13223;DHT22;6676;45.192;5.722;2022-12-18T10:12:27;3.10;99.90
13223;DHT22;6676;45.192;5.722;2022-12-18T10:15:21;3.10;99.90
13223;DHT22;6676;45.192;5.722;2022-12-18T10:21:09;3.20;99.90
13223;DHT22;6676;45.192;5.722;2022-12-18T10:24:05;3.30;99.90
13223;DHT22;6676;45.192;5.722;2022-12-18T10:26:59;3.40;99.90
13223;DHT22;6676;45.192;5.722;2022-12-18T10:30:11;3.50;99.90
13223;DHT22;6676;45.192;5.722;2022-12-18T10:33:03;3.60;99.90
13223;DHT22;6676;45.192;5.722;2022-12-18T10:35:55;3.60;99.90
13223;DHT22;6676;45.192;5.722;2022-12-18T10:38:47;3.60;99.90
13223;DHT22;6676;45.192;5.722;2022-12-18T10:42:11;3.60;99.90
13223;DHT22;6676;45.192;5.722;2022-12-18T10:45:11;3.70;99.90
13223;DHT22;6676;45.192;5.722;2022-12-18T10:50:52;3.80;99.90
13223;DHT22;6676;45.192;5.722;2022-12-18T10:56:39;4.00;99.90
13223;DHT22;6676;45.192;5.722;2022-12-18T11:20:36;4.30;99.90
13223;DHT22;6676;45.192;5.722;2022-12-18T11:23:49;4.40;99.90
13223;DHT22;6676;45.192;5.722;2022-12-18T11:26:46;4.40;99.90
13223;DHT22;6676;45.192;5.722;2022-12-18T11:29:43;4.50;99.90
13223;DHT22;6676;45.192;5.722;2022-12-18T11:49:38;4.80;99.90
13223;DHT22;6676;45.192;5.722;2022-12-18T11:52:33;4.80;99.90
13223;DHT22;6676;45.192;5.722;2022-12-18T11:55:30;4.80;99.90
13223;DHT22;6676;45.192;5.722;2022-12-18T11:58:34;4.90;99.90
13223;DHT22;6676;45.192;5.722;2022-12-18T12:01:36;4.90;99.90
13223;DHT22;6676;45.192;5.722;2022-12-18T12:04:48;4.90;99.90
13223;DHT22;6676;45.192;5.722;2022-12-18T12:07:49;5.10;99.90
13223;DHT22;6676;45.192;5.722;2022-12-18T12:16:37;5.10;99.90
13223;DHT22;6676;45.192;5.722;2022-12-18T12:19:37;5.30;99.90
13223;DHT22;6676;45.192;5.722;2022-12-18T12:25:31;5.30;99.90
13223;DHT22;6676;45.192;5.722;2022-12-18T12:28:28;5.30;99.90
13223;DHT22;6676;45.192;5.722;2022-12-18T12:31:25;5.40;99.90
13223;DHT22;6676;45.192;5.722;2022-12-18T12:34:21;5.30;99.90
13223;DHT22;6676;45.192;5.722;2022-12-18T12:37:23;5.30;99.90
13223;DHT22;6676;45.192;5.722;2022-12-18T12:40:18;5.30;99.90
13223;DHT22;6676;45.192;5.722;2022-12-18T12:43:22;5.40;99.90
13223;DHT22;6676;45.192;5.722;2022-12-18T12:46:19;5.50;99.90
13223;DHT22;6676;45.192;5.722;2022-12-18T12:49:17;5.50;99.90
13223;DHT22;6676;45.192;5.722;2022-12-18T12:52:27;5.50;99.90
13223;DHT22;6676;45.192;5.722;2022-12-18T12:55:21;5.50;99.90
13223;DHT22;6676;45.192;5.722;2022-12-18T12:58:16;5.50;99.90
13223;DHT22;6676;45.192;5.722;2022-12-18T13:01:14;5.50;99.90
13223;DHT22;6676;45.192;5.722;2022-12-18T13:04:18;5.50;99.90
13223;DHT22;6676;45.192;5.722;2022-12-18T13:11:02;5.60;99.90
13223;DHT22;6676;45.192;5.722;2022-12-18T13:14:22;5.60;99.90
13223;DHT22;6676;45.192;5.722;2022-12-18T13:17:31;5.60;99.90
13223;DHT22;6676;45.192;5.722;2022-12-18T13:25:42;5.80;99.90
13223;DHT22;6676;45.192;5.722;2022-12-18T13:28:53;5.90;99.90
13223;DHT22;6676;45.192;5.722;2022-12-18T13:32:31;5.90;99.90
13223;DHT22;6676;45.192;5.722;2022-12-18T13:35:41;6.00;99.90
13223;DHT22;6676;45.192;5.722;2022-12-18T13:38:37;6.00;99.90
13223;DHT22;6676;45.192;5.722;2022-12-18T13:41:29;5.90;99.90
13223;DHT22;6676;45.192;5.722;2022-12-18T13:44:32;6.00;99.90
13223;DHT22;6676;45.192;5.722;2022-12-18T14:39:05;6.40;99.90
13223;DHT22;6676;45.192;5.722;2022-12-18T14:42:00;6.40;99.90
13223;DHT22;6676;45.192;5.722;2022-12-18T14:44:52;6.40;99.90
13223;DHT22;6676;45.192;5.722;2022-12-18T14:47:47;6.40;99.90
13223;DHT22;6676;45.192;5.722;2022-12-18T14:50:40;6.30;99.90
13223;DHT22;6676;45.192;5.722;2022-12-18T14:53:36;6.20;99.90
13223;DHT22;6676;45.192;5.722;2022-12-18T14:56:37;6.20;99.90
13223;DHT22;6676;45.192;5.722;2022-12-18T15:02:29;6.20;99.90
13223;DHT22;6676;45.192;5.722;2022-12-18T15:05:25;6.10;99.90
13223;DHT22;6676;45.192;5.722;2022-12-18T15:34:14;5.60;99.90
13223;DHT22;6676;45.192;5.722;2022-12-18T15:37:07;5.80;99.90
13223;DHT22;6676;45.192;5.722;2022-12-18T15:39:59;5.80;99.90
13223;DHT22;6676;45.192;5.722;2022-12-18T15:46:11;5.50;99.90
13223;DHT22;6676;45.192;5.722;2022-12-18T15:49:13;5.40;99.90
13223;DHT22;6676;45.192;5.722;2022-12-18T15:52:05;5.40;99.90
13223;DHT22;6676;45.192;5.722;2022-12-18T15:54:57;5.30;99.90
13223;DHT22;6676;45.192;5.722;2022-12-18T15:58:12;5.20;99.90
13223;DHT22;6676;45.192;5.722;2022-12-18T16:01:09;5.10;99.90
13223;DHT22;6676;45.192;5.722;2022-12-18T16:04:01;5.10;99.90
13223;DHT22;6676;45.192;5.722;2022-12-18T16:09:39;5.00;99.90
13223;DHT22;6676;45.192;5.722;2022-12-18T16:12:32;5.00;99.90
13223;DHT22;6676;45.192;5.722;2022-12-18T16:18:11;4.90;99.90
13223;DHT22;6676;45.192;5.722;2022-12-18T16:37:40;4.60;99.90
13223;DHT22;6676;45.192;5.722;2022-12-18T16:40:36;4.60;99.90
13223;DHT22;6676;45.192;5.722;2022-12-18T17:39:36;4.80;99.90
13223;DHT22;6676;45.192;5.722;2022-12-18T17:42:28;5.00;99.90
13223;DHT22;6676;45.192;5.722;2022-12-18T17:45:24;4.90;99.90
13223;DHT22;6676;45.192;5.722;2022-12-18T17:48:16;4.80;99.90
13223;DHT22;6676;45.192;5.722;2022-12-18T18:54:56;4.30;99.90
13223;DHT22;6676;45.192;5.722;2022-12-18T18:57:49;4.40;99.90
13223;DHT22;6676;45.192;5.722;2022-12-18T19:00:42;4.30;99.90
13223;DHT22;6676;45.192;5.722;2022-12-18T19:03:35;4.30;99.90
13223;DHT22;6676;45.192;5.722;2022-12-18T20:26:05;4.40;99.90
13223;DHT22;6676;45.192;5.722;2022-12-18T20:28:58;4.50;99.90
13223;DHT22;6676;45.192;5.722;2022-12-18T20:31:49;4.50;99.90
13223;DHT22;6676;45.192;5.722;2022-12-18T20:34:41;4.60;99.90
13223;DHT22;6676;45.192;5.722;2022-12-18T20:37:34;4.50;99.90
13223;DHT22;6676;45.192;5.722;2022-12-18T20:40:28;4.50;99.90
13223;DHT22;6676;45.192;5.722;2022-12-18T20:43:24;4.50;99.90
13223;DHT22;6676;45.192;5.722;2022-12-18T20:46:20;4.60;99.90
13223;DHT22;6676;45.192;5.722;2022-12-18T20:49:13;4.60;99.90
13223;DHT22;6676;45.192;5.722;2022-12-18T20:52:06;4.60;99.90
13223;DHT22;6676;45.192;5.722;2022-12-18T20:55:04;4.60;99.90
13223;DHT22;6676;45.192;5.722;2022-12-18T20:57:59;4.60;99.90
13223;DHT22;6676;45.192;5.722;2022-12-18T21:01:03;4.60;99.90
13223;DHT22;6676;45.192;5.722;2022-12-18T21:04:02;4.60;99.90
13223;DHT22;6676;45.192;5.722;2022-12-18T21:11:15;4.60;99.90
13223;DHT22;6676;45.192;5.722;2022-12-18T21:14:27;4.60;99.90
13223;DHT22;6676;45.192;5.722;2022-12-18T21:17:20;4.70;99.90
13223;DHT22;6676;45.192;5.722;2022-12-18T21:20:12;4.60;99.90
13223;DHT22;6676;45.192;5.722;2022-12-18T21:23:05;4.50;99.90
13223;DHT22;6676;45.192;5.722;2022-12-18T21:26:16;4.60;99.90
13223;DHT22;6676;45.192;5.722;2022-12-18T21:29:12;4.60;99.90
13223;DHT22;6676;45.192;5.722;2022-12-18T21:36:10;4.70;99.90
13223;DHT22;6676;45.192;5.722;2022-12-18T21:39:02;4.70;99.90
13223;DHT22;6676;45.192;5.722;2022-12-18T21:41:54;4.60;99.90
13223;DHT22;6676;45.192;5.722;2022-12-18T21:45:05;4.50;99.90
13223;DHT22;6676;45.192;5.722;2022-12-18T22:04:13;4.30;99.90
13223;DHT22;6676;45.192;5.722;2022-12-18T22:07:06;4.30;99.90
13223;DHT22;6676;45.192;5.722;2022-12-18T22:10:01;4.30;99.90
13223;DHT22;6676;45.192;5.722;2022-12-18T22:12:53;4.20;99.90
13223;DHT22;6676;45.192;5.722;2022-12-18T22:33:42;4.20;99.90
13223;DHT22;6676;45.192;5.722;2022-12-18T23:03:46;4.40;99.90
13223;DHT22;6676;45.192;5.722;2022-12-18T23:06:40;4.30;99.90
13223;DHT22;6676;45.192;5.722;2022-12-18T23:09:32;4.30;99.90
13223;DHT22;6676;45.192;5.722;2022-12-18T23:12:24;4.30;99.90
13223;DHT22;6676;45.192;5.722;2022-12-18T23:15:16;4.30;99.90
13223;DHT22;6676;45.192;5.722;2022-12-18T23:19:13;4.30;99.90
13223;DHT22;6676;45.192;5.722;2022-12-18T23:22:14;4.30;99.90
13223;DHT22;6676;45.192;5.722;2022-12-18T23:25:10;4.20;99.90
13223;DHT22;6676;45.192;5.722;2022-12-18T23:28:04;4.20;99.90
13223;DHT22;6676;45.192;5.722;2022-12-18T23:34:13;4.30;99.90
13223;DHT22;6676;45.192;5.722;2022-12-18T23:54:31;4.40;99.90
13223;DHT22;6676;45.192;5.722;2022-12-18T23:57:23;4.40;99.90
